Time;durP1;ratioP1;P1;durP2;ratioP2;P2;SDS_P1;SDS_P2;PMS_P1;PMS_P2;Temp;Humidity;BMP_temperature;BMP_pressure;BME280_temperature;BME280_humidity;BME280_pressure;Samples;Min_cycle;Max_cycle;Signal;HPM_P1;HPM_P2
2020/12/26 00:01:22;;;;;;;49.35;32.55;;;;;;;9.71;70.46;101116.39;1769325;81;21135;-47
2020/12/26 00:03:51;;;;;;;51.75;33.02;;;;;;;9.71;70.70;101115.09;1755316;81;21160;-46
2020/12/26 00:06:20;;;;;;;51.73;33.98;;;;;;;9.74;70.79;101109.87;1758144;81;21144;-47
2020/12/26 00:08:50;;;;;;;50.80;34.27;;;;;;;9.77;70.91;101107.21;1758331;81;21120;-47
2020/12/26 00:11:19;;;;;;;49.85;33.08;;;;;;;9.80;71.14;101099.39;1758772;81;21157;-47
2020/12/26 00:13:49;;;;;;;54.98;33.90;;;;;;;9.82;71.37;101101.53;1758573;81;21172;-47
2020/12/26 00:16:18;;;;;;;58.87;35.92;;;;;;;9.83;71.61;101086.34;1758344;79;21191;-47
2020/12/26 00:18:46;;;;;;;55.28;32.98;;;;;;;9.87;71.83;101083.71;1758585;81;21156;-46
2020/12/26 00:21:16;;;;;;;66.85;36.35;;;;;;;9.91;72.00;101081.48;1761382;81;21136;-46
2020/12/26 00:23:44;;;;;;;59.73;34.70;;;;;;;9.94;72.23;101074.93;1764877;81;21154;-46
2020/12/26 00:26:17;;;;;;;62.00;34.27;;;;;;;9.97;72.52;101084.87;1745788;81;21294;-46
2020/12/26 00:28:45;;;;;;;59.05;34.33;;;;;;;10.03;72.71;101087.81;1759166;81;21148;-47
2020/12/26 00:33:53;;;;;;;60.33;36.20;;;;;;;10.20;72.58;101086.70;1809526;79;23518;-47
2020/12/26 00:36:21;;;;;;;62.15;35.65;;;;;;;10.19;72.50;101086.73;1725969;83;21286;-48
2020/12/26 00:38:51;;;;;;;58.55;33.70;;;;;;;10.22;72.56;101092.74;1730007;83;21157;-47
2020/12/26 00:41:19;;;;;;;67.35;35.60;;;;;;;10.22;72.65;101100.55;1725361;83;21152;-47
2020/12/26 00:43:47;;;;;;;63.33;34.65;;;;;;;10.21;72.64;101112.28;1720049;83;21330;-47
2020/12/26 00:46:17;;;;;;;61.13;31.62;;;;;;;10.23;72.66;101107.91;1739478;82;21156;-47
2020/12/26 00:48:45;;;;;;;54.77;30.62;;;;;;;10.24;72.93;101116.15;1740030;81;21755;-47
2020/12/26 00:51:13;;;;;;;55.70;30.08;;;;;;;10.22;73.17;101108.81;1746295;82;21190;-47
2020/12/26 00:53:41;;;;;;;54.58;30.05;;;;;;;10.24;73.32;101121.35;1738974;82;21166;-48
2020/12/26 00:56:11;;;;;;;53.75;29.65;;;;;;;10.24;73.36;101122.65;1737741;81;21591;-48
2020/12/26 00:58:40;;;;;;;57.83;32.45;;;;;;;10.22;73.42;101120.05;1744138;81;21178;-47
2020/12/26 01:01:09;;;;;;;57.17;29.52;;;;;;;10.21;73.47;101111.84;1722556;83;21592;-47
2020/12/26 01:04:04;;;;;;;53.38;27.15;;;;;;;10.24;73.65;101114.84;1807370;79;23260;-47
2020/12/26 01:06:33;;;;;;;49.90;28.00;;;;;;;10.19;73.70;101117.94;1779991;80;21160;-47
2020/12/26 01:09:02;;;;;;;47.83;28.32;;;;;;;10.15;73.78;101119.73;1777942;80;21145;-47
2020/12/26 01:11:30;;;;;;;45.45;27.70;;;;;;;10.15;73.81;101119.73;1777102;80;21726;-46
2020/12/26 01:13:58;;;;;;;51.77;27.13;;;;;;;10.11;73.78;101118.49;1776865;80;21148;-46
2020/12/26 01:16:27;;;;;;;46.40;25.48;;;;;;;10.09;73.91;101124.13;1777126;80;21185;-47
2020/12/26 01:18:55;;;;;;;49.18;26.35;;;;;;;10.05;74.01;101131.11;1776785;80;21136;-47
2020/12/26 01:21:23;;;;;;;44.77;24.80;;;;;;;10.04;73.97;101129.38;1773191;80;21164;-46
2020/12/26 01:23:52;;;;;;;49.40;25.82;;;;;;;10.04;73.92;101133.71;1780251;80;21723;-47
2020/12/26 01:26:20;;;;;;;44.35;25.52;;;;;;;10.04;73.88;101132.41;1779888;80;21585;-46
2020/12/26 01:28:48;;;;;;;45.60;24.50;;;;;;;10.01;74.01;101134.64;1777326;80;21315;-47
2020/12/26 01:31:16;;;;;;;44.98;23.75;;;;;;;10.00;74.06;101122.50;1776872;80;21322;-47
2020/12/26 01:33:44;;;;;;;38.10;22.40;;;;;;;9.99;74.11;101131.63;1776755;80;21283;-47
2020/12/26 01:36:13;;;;;;;42.88;21.37;;;;;;;9.97;74.10;101145.09;1776978;80;21159;-47
2020/12/26 01:38:42;;;;;;;37.00;21.95;;;;;;;9.95;74.16;101143.82;1776783;80;21160;-47
2020/12/26 01:41:13;;;;;;;37.60;21.97;;;;;;;9.93;74.34;101146.02;1778017;80;21290;-47
2020/12/26 01:43:59;;;;;;;33.25;21.60;;;;;;;9.96;74.51;101158.95;1750224;80;21129;-46
2020/12/26 01:46:29;;;;;;;31.77;20.15;;;;;;;9.98;74.48;101164.56;1773230;80;21171;-46
2020/12/26 01:48:57;;;;;;;30.50;19.02;;;;;;;10.01;74.36;101177.97;1780047;80;21136;-47
2020/12/26 01:51:25;;;;;;;30.50;19.37;;;;;;;10.03;74.29;101176.20;1776770;80;21120;-46
2020/12/26 01:53:54;;;;;;;28.15;18.05;;;;;;;10.04;74.31;101162.31;1779272;80;21168;-47
2020/12/26 01:56:22;;;;;;;26.15;16.93;;;;;;;10.04;74.29;101165.78;1780126;80;21183;-46
2020/12/26 01:58:51;;;;;;;25.60;17.48;;;;;;;10.05;74.13;101173.15;1771364;80;21136;-47
2020/12/26 02:01:35;;;;;;;25.90;17.37;;;;;;;10.04;73.97;101172.71;1777237;80;21158;-47
2020/12/26 02:04:03;;;;;;;25.37;16.65;;;;;;;10.00;73.85;101184.03;1769508;80;21148;-46
2020/12/26 02:06:35;;;;;;;23.90;15.75;;;;;;;9.99;73.85;101195.33;1769062;80;21148;-46
2020/12/26 02:09:04;;;;;;;22.17;14.97;;;;;;;10.00;73.67;101199.63;1770445;80;21204;-47
2020/12/26 02:11:34;;;;;;;22.67;15.05;;;;;;;10.00;73.36;101207.42;1765984;80;21142;-46
2020/12/26 02:14:02;;;;;;;22.22;15.25;;;;;;;9.96;73.19;101204.45;1772397;80;21152;-47
2020/12/26 02:16:48;;;;;;;17.55;12.93;;;;;;;9.89;73.17;101220.58;1771186;80;21160;-47
2020/12/26 02:19:20;;;;;;;17.42;13.08;;;;;;;9.87;73.13;101218.87;1711384;83;21199;-47
2020/12/26 02:21:48;;;;;;;19.27;12.03;;;;;;;9.81;73.17;101207.65;1710774;83;21268;-47
2020/12/26 02:24:16;;;;;;;19.77;13.20;;;;;;;9.77;72.91;101207.27;1709578;83;21572;-47
2020/12/26 02:26:45;;;;;;;21.17;14.83;;;;;;;9.70;72.88;101209.53;1707737;83;21232;-47
2020/12/26 02:29:13;;;;;;;24.35;15.43;;;;;;;9.68;73.02;101217.78;1706206;83;21176;-47
2020/12/26 02:31:41;;;;;;;23.25;15.80;;;;;;;9.68;72.93;101219.08;1712656;83;21208;-47
2020/12/26 02:34:10;;;;;;;21.17;15.15;;;;;;;9.67;72.67;101216.05;1711402;83;21140;-47
2020/12/26 02:36:38;;;;;;;18.98;13.75;;;;;;;9.60;72.59;101222.17;1702847;83;21203;-47
2020/12/26 02:39:08;;;;;;;17.45;13.40;;;;;;;9.54;72.68;101218.34;1708899;83;21200;-47
2020/12/26 02:41:36;;;;;;;17.98;13.62;;;;;;;9.50;72.49;101211.45;1708215;83;21168;-46
2020/12/26 02:44:04;;;;;;;18.62;13.05;;;;;;;9.44;72.55;101219.30;1708708;83;21306;-46
2020/12/26 02:46:32;;;;;;;17.12;12.58;;;;;;;9.41;72.48;101223.25;1709001;83;21323;-46
2020/12/26 02:49:01;;;;;;;16.00;12.13;;;;;;;9.31;72.48;101228.11;1709552;83;21239;-47
2020/12/26 02:51:29;;;;;;;15.63;11.43;;;;;;;9.22;72.67;101230.77;1708461;83;21285;-47
2020/12/26 02:53:57;;;;;;;19.65;12.65;;;;;;;9.12;73.01;101228.27;1704424;83;21608;-47
2020/12/26 02:56:25;;;;;;;15.20;11.90;;;;;;;9.07;73.24;101237.38;1706125;83;21620;-46
2020/12/26 02:58:54;;;;;;;15.60;11.12;;;;;;;9.02;73.45;101236.58;1714569;83;21216;-47
2020/12/26 03:01:22;;;;;;;16.40;11.40;;;;;;;9.01;73.51;101233.53;1710042;83;21165;-47
2020/12/26 03:03:51;;;;;;;15.45;11.15;;;;;;;8.97;73.73;101237.91;1696865;83;21306;-47
2020/12/26 03:06:19;;;;;;;13.22;10.40;;;;;;;8.97;73.89;101226.22;1704757;83;21192;-47
2020/12/26 03:08:47;;;;;;;15.85;12.45;;;;;;;8.98;73.93;101227.09;1706178;83;21318;-46
2020/12/26 03:11:16;;;;;;;15.83;11.63;;;;;;;9.02;74.03;101227.48;1706169;83;21205;-46
2020/12/26 03:13:44;;;;;;;15.78;11.60;;;;;;;9.09;74.12;101231.73;1705299;81;21215;-47
2020/12/26 03:16:13;;;;;;;15.55;11.78;;;;;;;9.17;74.01;101223.91;1763773;80;21129;-47
2020/12/26 03:18:42;;;;;;;15.50;11.05;;;;;;;9.20;73.76;101227.33;1764845;81;21168;-48
2020/12/26 03:21:13;;;;;;;14.73;11.48;;;;;;;9.20;73.65;101223.44;1759650;81;21145;-48
2020/12/26 03:23:41;;;;;;;14.35;11.33;;;;;;;9.20;73.67;101216.08;1767783;80;21582;-47
2020/12/26 03:26:09;;;;;;;14.28;11.22;;;;;;;9.19;73.74;101223.00;1765932;81;21176;-46
2020/12/26 03:28:38;;;;;;;13.83;10.55;;;;;;;9.20;73.88;101222.14;1763474;81;21117;-47
2020/12/26 03:31:06;;;;;;;12.70;11.05;;;;;;;9.21;73.89;101228.20;1762930;81;21133;-47
2020/12/26 03:33:35;;;;;;;13.65;11.00;;;;;;;9.23;73.99;101245.50;1762858;81;21113;-46
2020/12/26 03:36:03;;;;;;;12.20;9.70;;;;;;;9.21;74.01;101238.13;1762754;81;21274;-46
2020/12/26 03:38:31;;;;;;;11.45;8.88;;;;;;;9.22;74.08;101229.48;1757819;81;21550;-46
2020/12/26 03:41:00;;;;;;;8.10;6.55;;;;;;;9.21;73.96;101226.44;1761036;81;21125;-46
2020/12/26 03:43:28;;;;;;;5.92;5.12;;;;;;;9.15;72.99;101235.58;1762984;81;21141;-46
2020/12/26 03:45:56;;;;;;;5.75;4.97;;;;;;;9.06;72.29;101247.36;1762971;81;21160;-45
2020/12/26 03:48:25;;;;;;;6.60;5.03;;;;;;;8.96;71.95;101237.92;1761788;81;21137;-46
2020/12/26 03:50:53;;;;;;;4.53;3.83;;;;;;;8.82;71.95;101235.87;1762113;81;22205;-46
2020/12/26 03:53:22;;;;;;;4.50;3.90;;;;;;;8.71;71.83;101244.14;1766011;81;21137;-46
2020/12/26 03:55:50;;;;;;;4.97;3.62;;;;;;;8.64;71.89;101263.20;1763510;81;21168;-47
2020/12/26 03:58:19;;;;;;;4.17;3.60;;;;;;;8.59;71.88;101275.35;1763253;80;21161;-47
2020/12/26 04:00:47;;;;;;;5.17;4.08;;;;;;;8.54;71.86;101278.39;1762464;81;21153;-48
2020/12/26 04:03:15;;;;;;;3.95;3.50;;;;;;;8.48;71.67;101288.80;1759393;81;21192;-46
2020/12/26 04:05:43;;;;;;;4.08;3.67;;;;;;;8.43;71.73;101298.34;1763555;81;21212;-46
2020/12/26 04:08:11;;;;;;;5.08;4.25;;;;;;;8.40;71.83;101304.83;1765066;81;21152;-47
2020/12/26 04:10:40;;;;;;;4.50;3.67;;;;;;;8.41;71.72;101293.60;1765214;81;21342;-47
2020/12/26 04:13:07;;;;;;;4.95;3.95;;;;;;;8.40;71.69;101295.75;1761007;81;21148;-47
2020/12/26 04:15:35;;;;;;;4.58;3.95;;;;;;;8.39;71.51;101295.34;1768592;81;21157;-48
2020/12/26 04:18:05;;;;;;;5.37;4.20;;;;;;;8.33;71.40;101288.42;1756426;81;21129;-47
2020/12/26 04:20:34;;;;;;;4.62;4.05;;;;;;;8.32;71.49;101293.63;1757226;80;21152;-47
2020/12/26 04:23:02;;;;;;;4.53;3.90;;;;;;;8.32;71.21;101302.70;1761617;81;21117;-47
2020/12/26 04:25:31;;;;;;;4.47;4.05;;;;;;;8.27;71.12;101304.02;1762782;81;21121;-47
2020/12/26 04:27:59;;;;;;;6.15;4.47;;;;;;;8.22;70.86;101312.22;1762859;81;21290;-47
2020/12/26 04:30:28;;;;;;;6.00;4.05;;;;;;;8.16;70.75;101313.54;1763159;80;21152;-47
2020/12/26 04:32:56;;;;;;;4.72;3.90;;;;;;;8.09;70.69;101315.28;1763418;81;21132;-46
2020/12/26 04:35:24;;;;;;;4.53;3.95;;;;;;;8.03;70.80;101315.30;1766663;81;21157;-47
2020/12/26 04:37:53;;;;;;;4.90;4.40;;;;;;;7.99;70.97;101313.58;1766376;81;21117;-47
2020/12/26 04:40:22;;;;;;;5.58;5.08;;;;;;;7.96;71.01;101332.14;1764572;81;21157;-47
2020/12/26 04:42:50;;;;;;;6.22;5.62;;;;;;;7.94;70.95;101339.92;1764070;81;21192;-47
2020/12/26 04:45:18;;;;;;;7.67;6.97;;;;;;;7.91;70.85;101346.39;1762286;81;21549;-48
2020/12/26 04:48:01;;;;;;;6.65;5.95;;;;;;;7.89;70.83;101334.33;1761627;81;21546;-47
2020/12/26 04:50:32;;;;;;;6.62;6.03;;;;;;;7.86;70.80;101333.89;1765203;81;21156;-47
2020/12/26 04:53:02;;;;;;;6.65;5.95;;;;;;;7.81;70.69;101353.75;1761388;81;21141;-47
2020/12/26 04:55:34;;;;;;;5.53;5.00;;;;;;;7.79;70.60;101354.19;1762736;80;21148;-47
2020/12/26 04:58:09;;;;;;;4.78;4.22;;;;;;;7.75;70.44;101345.98;1753785;81;21153;-47
2020/12/26 05:00:39;;;;;;;3.98;3.58;;;;;;;7.73;70.50;101351.60;1765866;81;21157;-47
2020/12/26 05:03:09;;;;;;;4.00;3.60;;;;;;;7.68;70.54;101366.30;1765089;80;21172;-47
2020/12/26 05:05:39;;;;;;;3.45;3.15;;;;;;;7.65;70.61;101374.06;1771698;80;21120;-48
2020/12/26 05:08:11;;;;;;;3.85;3.45;;;;;;;7.64;70.50;101393.06;1770209;80;21167;-48
2020/12/26 05:10:40;;;;;;;5.12;3.27;;;;;;;7.64;70.44;101405.14;1771219;80;21148;-45
2020/12/26 05:13:11;;;;;;;2.77;2.55;;;;;;;7.63;70.36;101415.93;1771572;80;21144;-46
2020/12/26 05:15:40;;;;;;;3.00;2.72;;;;;;;7.60;70.10;101426.73;1771028;80;21167;-46
2020/12/26 05:18:08;;;;;;;2.40;2.20;;;;;;;7.54;70.26;101429.31;1772716;80;21139;-47
2020/12/26 05:20:36;;;;;;;2.67;2.47;;;;;;;7.51;70.16;101430.16;1774415;80;21168;-46
2020/12/26 05:23:12;;;;;;;2.40;2.20;;;;;;;7.50;70.29;101427.13;1770805;80;21148;-47
2020/12/26 05:25:45;;;;;;;2.62;2.27;;;;;;;7.51;70.37;101432.75;1770123;80;21116;-48
2020/12/26 05:28:19;;;;;;;2.90;2.58;;;;;;;7.51;70.32;101432.75;1773775;80;21133;-47
2020/12/26 05:30:50;;;;;;;2.95;2.30;;;;;;;7.51;70.37;101448.29;1740921;81;21198;-47
2020/12/26 05:33:19;;;;;;;3.70;2.80;;;;;;;7.52;70.12;101447.45;1746100;81;21598;-47
2020/12/26 05:35:52;;;;;;;2.70;2.50;;;;;;;7.48;69.90;101450.86;1745491;81;21166;-48
2020/12/26 05:38:23;;;;;;;2.25;2.05;;;;;;;7.45;70.01;101462.95;1744081;81;21316;-48
2020/12/26 05:40:58;;;;;;;;;;;;;;;7.42;70.10;101461.20;1745398;81;21119;-48
2020/12/26 05:43:29;;;;;;;2.37;2.17;;;;;;;7.39;70.09;101453.45;1730503;81;20177;-46
2020/12/26 05:46:03;;;;;;;2.70;2.50;;;;;;;7.39;70.26;101449.14;1807912;79;21862;-46
2020/12/26 05:48:32;;;;;;;2.45;2.25;;;;;;;7.32;70.34;101465.51;1773239;80;21136;-47
2020/12/26 05:51:01;;;;;;;2.35;2.15;;;;;;;7.31;70.36;101480.63;1737636;82;21184;-47
2020/12/26 05:53:30;;;;;;;3.60;2.35;;;;;;;7.27;70.15;101477.56;1730984;82;21184;-46
2020/12/26 05:55:58;;;;;;;2.50;2.20;;;;;;;7.21;70.11;101484.47;1742124;82;21188;-46
2020/12/26 05:58:26;;;;;;;2.30;2.10;;;;;;;7.16;70.33;101486.16;1730007;82;21133;-48
2020/12/26 06:00:59;;;;;;;2.65;2.45;;;;;;;7.14;70.38;101495.64;1704691;83;21573;-47
2020/12/26 06:03:31;;;;;;;;;;;;;;;7.10;70.52;101513.31;1711574;83;21167;-47
2020/12/26 06:05:59;;;;;;;;;;;;;;;7.03;70.82;101535.70;1711342;83;20140;-47
2020/12/26 06:08:28;;;;;;;2.08;1.77;;;;;;;7.02;71.27;101539.58;1710246;83;20454;-47
2020/12/26 06:11:03;;;;;;;1.87;1.70;;;;;;;7.01;71.15;101539.13;1711269;83;21156;-46
2020/12/26 06:13:32;;;;;;;2.33;2.00;;;;;;;7.00;70.95;101549.06;1637348;86;21793;-48
2020/12/26 06:16:20;;;;;;;2.12;1.80;;;;;;;6.96;70.83;101550.78;1689041;83;21168;-47
2020/12/26 06:18:56;;;;;;;2.25;2.05;;;;;;;6.93;70.96;101544.28;1689897;84;21676;-45
2020/12/26 06:21:26;;;;;;;2.17;1.98;;;;;;;6.90;70.88;101551.16;1689530;84;21180;-46
2020/12/26 06:23:54;;;;;;;2.00;1.90;;;;;;;6.88;70.71;101563.23;1688987;84;21195;-47
2020/12/26 06:26:22;;;;;;;2.20;1.75;;;;;;;6.84;70.73;101566.20;1689880;84;21175;-46
2020/12/26 06:28:51;;;;;;;1.95;1.75;;;;;;;6.87;71.10;101570.53;1687455;84;21578;-47
2020/12/26 06:31:19;;;;;;;1.82;1.72;;;;;;;6.91;70.77;101580.92;1663431;84;21259;-46
2020/12/26 06:33:48;;;;;;;2.12;1.75;;;;;;;6.90;70.32;101587.39;1686582;84;21782;-47
2020/12/26 06:36:19;;;;;;;2.02;1.82;;;;;;;6.90;70.30;101589.97;1684481;84;21316;-47
2020/12/26 06:38:47;;;;;;;1.40;1.20;;;;;;;6.90;70.20;101587.39;1688254;84;21309;-48
2020/12/26 06:41:18;;;;;;;1.87;1.50;;;;;;;6.88;69.97;101581.33;1665172;84;21136;-49
2020/12/26 06:43:53;;;;;;;;;;;;;;;6.82;69.81;101582.14;1681685;84;21672;-47
2020/12/26 06:46:29;;;;;;;2.10;2.00;;;;;;;6.78;69.92;101601.08;1681539;84;20182;-47
2020/12/26 06:48:58;;;;;;;1.85;1.67;;;;;;;6.75;70.06;101605.38;1673892;84;21184;-48
2020/12/26 06:51:33;;;;;;;1.90;1.80;;;;;;;6.70;70.24;101618.27;1673317;84;21184;-47
2020/12/26 06:54:04;;;;;;;1.87;1.77;;;;;;;6.65;70.23;101621.68;1684650;84;21192;-48
2020/12/26 06:56:43;;;;;;;2.00;1.80;;;;;;;6.58;70.15;101611.71;1683747;84;21155;-48
2020/12/26 06:59:12;;;;;;;2.65;2.00;;;;;;;6.52;70.23;101609.08;1676916;84;21170;-47
2020/12/26 07:01:44;;;;;;;2.58;1.98;;;;;;;6.44;70.44;101620.66;1691651;84;21182;-47
2020/12/26 07:04:17;;;;;;;1.97;1.80;;;;;;;6.36;70.54;101621.02;1680854;84;21173;-47
2020/12/26 07:06:54;;;;;;;1.75;1.65;;;;;;;6.32;70.88;101629.59;1669629;84;21495;-47
2020/12/26 07:09:46;;;;;;;1.72;1.62;;;;;;;6.44;70.75;101634.88;1679562;82;21167;-47
2020/12/26 07:12:15;;;;;;;;;;;;;;;6.34;70.85;101636.94;1764262;80;21608;-47
2020/12/26 07:14:45;;;;;;;1.92;1.72;;;;;;;6.30;70.90;101632.59;1765031;80;20156;-47
2020/12/26 07:17:22;;;;;;;1.57;1.47;;;;;;;6.38;70.42;101632.23;1675191;85;21330;-47
2020/12/26 07:19:53;;;;;;;2.25;2.05;;;;;;;6.35;70.75;101634.78;1716899;82;21161;-50
2020/12/26 07:22:30;;;;;;;2.30;2.10;;;;;;;6.42;70.55;101634.00;1733112;81;21573;-47
2020/12/26 07:25:05;;;;;;;2.40;2.20;;;;;;;6.43;70.61;101632.25;1737744;81;21175;-46
2020/12/26 07:27:42;;;;;;;2.35;2.15;;;;;;;6.44;70.66;101632.30;1735232;81;21313;-46
2020/12/26 07:30:17;;;;;;;2.00;1.90;;;;;;;6.45;70.58;101627.55;1745498;81;21612;-46
2020/12/26 07:32:57;;;;;;;2.30;2.10;;;;;;;6.47;70.78;101634.88;1739591;81;21179;-46
2020/12/26 07:35:32;;;;;;;2.27;2.00;;;;;;;6.47;70.82;101642.64;1732606;81;21603;-47
2020/12/26 07:38:12;;;;;;;1.85;1.75;;;;;;;6.47;70.68;101641.80;1732832;81;21159;-47
2020/12/26 07:40:47;;;;;;;2.10;1.80;;;;;;;6.50;70.42;101642.69;1793444;79;37041;-47
2020/12/26 07:43:16;;;;;;;1.95;1.85;;;;;;;6.50;70.49;101642.69;1816074;78;21136;-46
2020/12/26 07:45:49;;;;;;;2.42;1.95;;;;;;;6.56;70.28;101655.66;1807843;78;21136;-46
2020/12/26 07:48:17;;;;;;;1.90;1.80;;;;;;;6.57;70.10;101663.84;1814585;78;21148;-48
2020/12/26 07:50:45;;;;;;;2.10;2.00;;;;;;;6.57;69.97;101656.09;1827036;78;21266;-46
2020/12/26 07:53:15;;;;;;;2.02;1.90;;;;;;;6.48;70.23;101652.15;1821426;78;21120;-46
2020/12/26 07:55:43;;;;;;;2.45;2.25;;;;;;;6.54;70.13;101652.62;1810417;78;21159;-47
2020/12/26 07:58:13;;;;;;;1.95;1.85;;;;;;;6.57;69.90;101641.87;1815515;78;21136;-46
2020/12/26 08:00:43;;;;;;;2.50;2.00;;;;;;;6.57;69.87;101640.58;1814986;78;21588;-47
2020/12/26 08:03:13;;;;;;;2.87;2.25;;;;;;;6.58;69.90;101655.25;1815825;78;21151;-46
2020/12/26 08:05:48;;;;;;;2.33;2.12;;;;;;;6.59;69.86;101656.13;1779779;80;21188;-47
2020/12/26 08:08:23;;;;;;;3.20;2.10;;;;;;;6.59;69.76;101659.55;1746315;81;21151;-47
2020/12/26 08:10:58;;;;;;;2.67;2.42;;;;;;;6.63;69.79;101664.77;1760452;81;21189;-46
2020/12/26 08:13:29;;;;;;;2.60;2.20;;;;;;;6.65;69.49;101673.41;1759364;81;21175;-47
2020/12/26 08:16:05;;;;;;;2.50;2.30;;;;;;;6.66;69.62;101685.05;1751918;81;21168;-47
2020/12/26 08:18:35;;;;;;;3.00;2.30;;;;;;;6.68;69.40;101687.67;1694475;83;21164;-47
2020/12/26 08:21:06;;;;;;;2.35;2.15;;;;;;;6.72;69.29;101685.55;1706563;83;21183;-46
2020/12/26 08:23:34;;;;;;;2.87;2.45;;;;;;;6.73;69.12;101680.80;1702531;83;21188;-47
2020/12/26 08:26:02;;;;;;;2.87;2.45;;;;;;;6.72;69.11;101686.84;1702630;83;21164;-47
2020/12/26 08:28:31;;;;;;;2.37;2.15;;;;;;;6.73;69.03;101679.50;1711122;83;21310;-47
2020/12/26 08:33:38;;;;;;;2.60;2.20;;;;;;;6.82;68.95;101661.03;1787492;79;28189;-46
2020/12/26 08:36:15;;;;;;;2.80;2.20;;;;;;;6.82;68.42;101665.37;1778587;80;21576;-47
2020/12/26 08:38:54;;;;;;;2.60;2.40;;;;;;;6.91;68.25;101669.30;1769625;80;21277;-46
2020/12/26 08:41:23;;;;;;;3.37;3.08;;;;;;;6.90;68.06;101679.23;1747847;81;21124;-48
2020/12/26 08:43:52;;;;;;;2.62;2.42;;;;;;;6.88;68.59;101671.46;1770532;80;21143;-49
2020/12/26 08:46:28;;;;;;;3.00;2.60;;;;;;;6.97;68.29;101670.64;1767877;80;21104;-46
2020/12/26 08:48:56;;;;;;;2.87;2.65;;;;;;;7.02;68.19;101680.19;1764887;80;21148;-47
2020/12/26 08:51:26;;;;;;;2.60;2.40;;;;;;;7.03;68.08;101670.68;1763110;80;21258;-47
2020/12/26 08:53:58;;;;;;;3.35;2.77;;;;;;;6.75;68.72;101676.50;1762486;80;21596;-46
2020/12/26 08:56:39;;;;;;;3.70;3.08;;;;;;;6.71;68.79;101682.51;1767685;80;21131;-47
2020/12/26 08:59:07;;;;;;;3.72;3.37;;;;;;;6.70;68.76;101685.97;1765202;80;21123;-48
2020/12/26 09:01:36;;;;;;;4.25;3.47;;;;;;;6.70;68.82;101691.14;1766602;80;21164;-47
2020/12/26 09:04:06;;;;;;;3.45;3.02;;;;;;;6.71;68.87;101690.27;1773251;80;21600;-47
2020/12/26 09:06:40;;;;;;;3.02;2.55;;;;;;;6.74;68.93;101686.42;1770817;80;21189;-47
2020/12/26 09:09:18;;;;;;;4.17;3.65;;;;;;;6.76;68.79;101688.15;1764037;80;21123;-48
2020/12/26 09:11:48;;;;;;;4.03;3.30;;;;;;;6.77;68.47;101688.61;1762099;79;21187;-47
2020/12/26 09:14:20;;;;;;;3.12;2.77;;;;;;;6.80;68.35;101683.89;1764091;80;21145;-47
2020/12/26 09:16:58;;;;;;;3.58;3.27;;;;;;;6.82;68.09;101679.59;1762589;80;21139;-47
2020/12/26 09:19:27;;;;;;;3.33;3.02;;;;;;;6.82;67.95;101678.30;1679204;83;21233;-47
2020/12/26 09:22:09;;;;;;;3.85;3.42;;;;;;;6.81;67.95;101679.14;1678899;84;21183;-48
2020/12/26 09:24:37;;;;;;;3.87;3.50;;;;;;;6.90;67.68;101676.64;1678283;84;21315;-49
2020/12/26 09:27:07;;;;;;;4.03;3.58;;;;;;;6.85;68.01;101686.07;1686758;84;21265;-46
2020/12/26 09:29:35;;;;;;;4.75;4.22;;;;;;;6.89;68.21;101687.83;1677585;84;21206;-46
2020/12/26 09:32:08;;;;;;;6.67;4.20;;;;;;;6.93;68.03;101694.76;1684576;84;21170;-46
2020/12/26 09:34:36;;;;;;;3.67;3.37;;;;;;;6.94;68.01;101699.09;1647190;85;21255;-47
2020/12/26 09:37:08;;;;;;;5.03;3.12;;;;;;;6.99;67.97;101719.38;1686271;84;21379;-46
2020/12/26 09:39:37;;;;;;;5.45;3.08;;;;;;;7.03;67.74;101734.95;1656910;85;21588;-48
2020/12/26 09:42:05;;;;;;;2.98;2.65;;;;;;;7.05;67.44;101728.48;1685399;84;21170;-47
2020/12/26 09:44:33;;;;;;;3.95;3.55;;;;;;;6.98;67.79;101724.14;1685199;84;21156;-47
2020/12/26 09:47:04;;;;;;;3.33;2.92;;;;;;;7.03;67.52;101728.48;1628364;87;21194;-47
2020/12/26 09:49:38;;;;;;;3.87;3.50;;;;;;;7.04;67.83;101730.66;1782889;79;28165;-46
2020/12/26 09:52:07;;;;;;;5.17;4.50;;;;;;;7.12;67.49;101736.34;1793403;80;21143;-47
2020/12/26 09:54:35;;;;;;;11.35;7.65;;;;;;;7.18;66.98;101726.45;1767981;80;21120;-47
2020/12/26 09:57:03;;;;;;;11.53;8.93;;;;;;;7.18;67.02;101719.97;1774612;80;21140;-48
2020/12/26 09:59:32;;;;;;;14.00;11.65;;;;;;;7.15;67.23;101718.67;1775860;80;21129;-47
2020/12/26 10:02:00;;;;;;;17.15;12.50;;;;;;;7.15;67.04;101725.98;1762724;80;21160;-47
2020/12/26 10:04:29;;;;;;;19.10;11.93;;;;;;;7.18;67.23;101722.56;1780795;80;21124;-47
2020/12/26 10:06:58;;;;;;;26.97;23.18;;;;;;;7.18;67.41;101718.68;1785815;80;21148;-46
2020/12/26 10:09:26;;;;;;;13.65;12.20;;;;;;;7.22;67.45;101726.91;1782730;80;21731;-46
2020/12/26 10:11:55;;;;;;;12.93;11.57;;;;;;;7.23;67.34;101735.97;1780840;80;21143;-47
2020/12/26 10:14:24;;;;;;;8.65;7.83;;;;;;;7.14;67.07;101751.45;1763847;80;21262;-47
2020/12/26 10:16:53;;;;;;;17.42;15.63;;;;;;;7.22;67.01;101754.96;1779205;80;21163;-47
2020/12/26 10:19:21;;;;;;;9.58;8.50;;;;;;;7.22;67.22;101745.90;1780864;80;21573;-47
2020/12/26 10:21:52;;;;;;;15.05;13.38;;;;;;;7.22;67.03;101754.09;1774351;80;21595;-47
2020/12/26 10:24:21;;;;;;;10.80;9.63;;;;;;;7.21;67.19;101762.27;1782100;80;21162;-46
2020/12/26 10:26:50;;;;;;;8.43;6.80;;;;;;;7.23;67.02;101754.55;1766877;80;21589;-47
2020/12/26 10:29:19;;;;;;;5.50;5.00;;;;;;;7.22;67.01;101765.31;1772939;80;21573;-46
2020/12/26 10:31:47;;;;;;;5.33;4.83;;;;;;;7.23;66.99;101780.42;1778159;80;21203;-45
2020/12/26 10:34:17;;;;;;;5.20;4.70;;;;;;;7.25;66.89;101778.27;1776064;80;21144;-46
2020/12/26 10:36:46;;;;;;;5.70;4.37;;;;;;;7.27;66.83;101785.61;1775381;80;21577;-48
2020/12/26 10:39:14;;;;;;;11.48;10.00;;;;;;;7.29;66.69;101774.00;1783422;80;21171;-46
2020/12/26 10:41:44;;;;;;;7.03;6.33;;;;;;;7.33;66.54;101769.28;1779627;80;21582;-47
2020/12/26 10:44:12;;;;;;;9.63;8.20;;;;;;;7.32;66.37;101767.53;1788656;80;21177;-47
2020/12/26 10:46:42;;;;;;;5.30;4.80;;;;;;;7.30;66.31;101764.07;1776721;80;21259;-47
2020/12/26 10:49:11;;;;;;;13.32;11.93;;;;;;;7.27;66.27;101760.18;1715600;81;21106;-47
2020/12/26 10:51:40;;;;;;;9.43;8.53;;;;;;;7.21;66.40;101757.09;1764729;81;21188;-46
2020/12/26 10:54:08;;;;;;;9.23;8.23;;;;;;;7.21;66.64;101758.84;1776228;81;21122;-46
2020/12/26 10:56:36;;;;;;;10.30;8.63;;;;;;;7.17;66.62;101755.79;1759577;81;21160;-46
2020/12/26 10:59:04;;;;;;;10.53;9.20;;;;;;;7.15;66.89;101748.44;1772206;81;21653;-46
2020/12/26 11:01:33;;;;;;;8.28;7.08;;;;;;;7.14;67.06;101736.34;1770722;81;21137;-46
2020/12/26 11:04:01;;;;;;;13.98;10.82;;;;;;;7.13;66.97;101722.52;1771673;80;21282;-47
2020/12/26 11:06:30;;;;;;;10.43;9.35;;;;;;;7.12;67.09;101716.92;1763779;81;21310;-46
2020/12/26 11:08:58;;;;;;;9.88;8.88;;;;;;;7.10;67.13;101719.93;1774609;81;21156;-46
2020/12/26 11:11:28;;;;;;;10.48;8.30;;;;;;;7.10;67.05;101732.00;1766070;80;21146;-47
2020/12/26 11:13:58;;;;;;;6.72;6.03;;;;;;;7.09;67.22;101741.92;1776798;81;21150;-47
2020/12/26 11:16:27;;;;;;;9.10;8.20;;;;;;;7.11;66.91;101744.09;1761691;81;21688;-48
2020/12/26 11:18:55;;;;;;;8.95;7.92;;;;;;;7.08;66.90;101734.58;1766060;81;21333;-45
2020/12/26 11:21:23;;;;;;;8.90;8.05;;;;;;;7.09;67.12;101731.57;1775768;80;21136;-46
2020/12/26 11:23:52;;;;;;;9.80;8.63;;;;;;;7.10;67.00;101729.41;1757235;81;21164;-47
2020/12/26 11:26:23;;;;;;;7.42;6.62;;;;;;;7.11;67.08;101726.82;1755693;80;21144;-47
2020/12/26 11:28:51;;;;;;;7.80;7.10;;;;;;;7.14;66.98;101738.92;1773112;81;21144;-47
2020/12/26 11:31:25;;;;;;;6.35;5.78;;;;;;;7.14;67.04;101735.05;1754023;81;21149;-47
2020/12/26 11:33:54;;;;;;;7.08;6.45;;;;;;;7.13;67.08;101738.05;1688452;84;21189;-47
2020/12/26 11:36:26;;;;;;;6.62;5.83;;;;;;;7.14;66.93;101744.10;1681951;84;21153;-47
2020/12/26 11:38:55;;;;;;;8.05;7.28;;;;;;;7.15;66.87;101745.85;1675849;84;21137;-48
2020/12/26 11:41:28;;;;;;;7.53;6.80;;;;;;;7.15;66.89;101741.52;1689011;84;21209;-47
2020/12/26 11:44:03;;;;;;;7.62;6.58;;;;;;;7.19;66.97;101737.26;1766515;79;22944;-47
2020/12/26 11:46:32;;;;;;;6.33;5.60;;;;;;;7.16;66.94;101742.39;1732711;82;21208;-47